Flight Track Log - Related Links

Times and Time Zones

All times are in EDT time to prevent confusion due to time zone crossing. See the TCF5958 flight status page for this flight to view local times or setup timezone preferences in your user account.

Time Position Orientation Groundspeed Altitude Reporting Facility
EDT Latitude Longitude Course Direction KTS MPH feet Rate Location/Type
Thu 08:53:19 PM 41.9167 -87.8667 90° East 203 234 3,000  Level Chicago TRACON
Thu 08:54:25 PM 41.8667 -87.8000 135° Southeast 264 304 5,600 2,784 Climbing Chicago TRACON
Thu 08:55:00 PM 41.9500 -87.4437 90° East  Level FlightAware Approximate
Thu 08:55:52 PM 41.8303 -87.6625 110° East 295 339 10,100  Level Chicago Center
Thu 08:56:00 PM 41.9447 -87.2914 95° East  Level FlightAware Approximate
Thu 08:56:54 PM 41.8533 -87.5522 74° East 307 353 12,600  Level Chicago Center
Thu 08:57:00 PM 41.9338 -87.1395 95° East  Level FlightAware Approximate
Thu 08:57:57 PM 41.8786 -87.4197 76° East 344 396 14,000  Level Chicago Center
Thu 08:58:00 PM 41.9667 -87.7513 90° East  Level FlightAware Approximate
Thu 08:58:59 PM 41.9053 -87.2789 76° East 386 444 15,800  Level Chicago Center
Thu 09:00:01 PM 41.9325 -87.1339 76° East 399 459 17,400 1,355 Climbing Chicago Center
Thu 09:01:03 PM 41.9458 -86.9742 84° East 418 481 18,600 1,355 Climbing Chicago Center
Thu 09:02:05 PM 41.9483 -86.8128 89° East 427 491 20,200 1,500 Climbing Chicago Center
Thu 09:03:07 PM 41.9500 -86.6278 89° East 442 509 21,700 1,403 Climbing Chicago Center
Thu 09:04:09 PM 41.9522 -86.4578 89° East 454 522 23,100 1,355 Climbing Chicago Center
Thu 09:05:11 PM 41.9539 -86.2850 89° East 457 526 24,500 1,258 Climbing Chicago Center
Thu 09:06:13 PM 41.9461 -86.1139 93° East 458 527 25,700 1,104 Climbing Chicago Center
Thu 09:07:16 PM 41.9297 -85.9406 97° East 462 532 26,800 1,056 Climbing Chicago Center
Thu 09:08:18 PM 41.9131 -85.7650 97° East 469 540 27,900 1,065 Climbing Chicago Center
Thu 09:09:20 PM 41.8922 -85.5472 97° East 484 557 29,000 919 Climbing Chicago Center
Thu 09:10:22 PM 41.8750 -85.3606 97° East 492 566 29,800 919 Climbing Chicago Center
Thu 09:11:24 PM 41.8553 -85.1706 98° East 504 580 30,900 1,016 Climbing Chicago Center
Thu 09:12:26 PM 41.8358 -84.9811 98° East 507 583 31,900 1,011 Climbing Chicago Center
Thu 09:12:59 PM 41.8244 -84.8672 98° East 507 583 32,500 1,074 Climbing Cleveland Center
Thu 09:14:01 PM 41.8050 -84.6792 98° East 508 585 33,600 1,065 Climbing Cleveland Center
Thu 09:15:03 PM 41.7853 -84.4950 98° East 503 579 34,700 683 Climbing Cleveland Center
Thu 09:16:04 PM 41.7761 -84.3078 94° East 503 579 35,000 146 Climbing Cleveland Center
Thu 09:17:06 PM 41.7758 -84.1300 90° East 504 580 35,000 387 Level Cleveland Center
Thu 09:18:08 PM 41.7747 -83.9067 90° East 504 580 35,800 732 Climbing Cleveland Center
Thu 09:19:09 PM 41.7725 -83.7225 91° East 503 579 36,500 585 Climbing Cleveland Center
Thu 09:20:11 PM 41.7683 -83.5383 92° East 502 578 37,000 242 Climbing Cleveland Center
Thu 09:21:13 PM 41.7514 -83.3564 97° East 501 577 37,000  Level Cleveland Center
Thu 09:22:14 PM 41.7339 -83.1742 97° East 499 574 37,000  Level Cleveland Center
Thu 09:23:16 PM 41.7158 -82.9919 98° East 499 574 37,000  Level Cleveland Center
Thu 09:24:17 PM 41.6936 -82.7731 98° East 499 574 37,000  Level Cleveland Center
Thu 09:25:19 PM 41.6753 -82.5919 98° East 498 573 37,000  Level Cleveland Center
Thu 09:26:21 PM 41.6564 -82.4086 98° East 498 573 37,000  Level Cleveland Center
Thu 09:27:22 PM 41.6369 -82.2264 98° East 497 572 37,000  Level Cleveland Center
Thu 09:28:24 PM 41.6161 -82.0417 99° East 497 572 37,000  Level Cleveland Center
Thu 09:29:26 PM 41.5961 -81.8578 98° East 496 571 37,000  Level Cleveland Center
Thu 09:30:27 PM 41.5750 -81.6711 99° East 496 571 37,000  Level Cleveland Center
Thu 09:31:29 PM 41.5542 -81.4850 98° East 497 572 37,000  Level Cleveland Center
Thu 09:32:31 PM 41.5325 -81.3003 99° East 496 571 37,000  Level Cleveland Center
Thu 09:33:32 PM 41.5108 -81.1158 99° East 496 571 37,000  Level Cleveland Center
Thu 09:34:34 PM 41.4942 -80.8986 96° East 496 571 37,000  Level Cleveland Center
Thu 09:35:35 PM 41.4767 -80.7153 97° East 497 572 37,000  Level Cleveland Center
Thu 09:36:37 PM 41.4597 -80.5322 97° East 496 571 37,000  Level Cleveland Center
Thu 09:37:39 PM 41.4439 -80.3475 96° East 496 571 37,000  Level Cleveland Center
Thu 09:38:40 PM 41.4275 -80.1778 97° East 500 575 37,000  Level Cleveland Center
Thu 09:39:42 PM 41.4094 -79.9947 97° East 499 574 37,000  Level Cleveland Center
Thu 09:40:44 PM 41.3900 -79.7750 97° East 499 574 37,000  Level Cleveland Center
Thu 09:41:45 PM 41.3706 -79.5919 98° East 499 574 37,000  Level Cleveland Center
Thu 09:42:47 PM 41.3514 -79.4103 98° East 498 573 37,000  Level Cleveland Center
Thu 09:43:49 PM 41.3331 -79.2328 98° East 495 570 37,000  Level Cleveland Center
Thu 09:44:50 PM 41.3150 -79.0517 98° East 494 568 37,000  Level Cleveland Center
Thu 09:45:52 PM 41.2956 -78.8686 98° East 493 567 37,000  Level Cleveland Center
Thu 09:46:54 PM 41.2769 -78.6906 98° East 489 563 37,000 -49 Level Cleveland Center
Thu 09:47:55 PM 41.2567 -78.5106 98° East 490 564 36,900 -1,024 Descending Cleveland Center
Thu 09:48:57 PM 41.2344 -78.3269 99° East 497 572 34,900 -1,887 Descending Cleveland Center
Thu 09:49:59 PM 41.2114 -78.1133 98° East 490 564 33,000 -927 Descending Cleveland Center
Thu 09:51:00 PM 41.1883 -77.9350 100° East 490 564 33,000  Level Cleveland Center
Thu 09:52:02 PM 41.1667 -77.7572 99° East 490 564 33,000 -780 Level Cleveland Center
Thu 09:53:03 PM 41.1439 -77.5806 100° East 490 564 31,400 -1,707 Descending Cleveland Center
Thu 09:54:05 PM 41.1200 -77.3892 99° East 490 564 29,500 -1,645 Descending Cleveland Center
Thu 09:55:07 PM 41.0989 -77.2292 100° East 487 560 28,000 -1,561 Descending Cleveland Center
Thu 09:56:08 PM 41.0758 -77.0625 100° East 469 540 26,300 -1,756 Descending Cleveland Center
Thu 09:57:10 PM 41.0503 -76.8692 100° East 451 519 24,400 -1,645 Descending Cleveland Center
Thu 09:58:12 PM 41.0294 -76.7103 100° East 444 511 22,900 -1,463 Descending Cleveland Center
Thu 09:59:13 PM 40.9978 -76.5611 106° East 427 491 21,400 -1,463 Descending Cleveland Center
Thu 10:00:15 PM 40.9622 -76.4156 108° East 422 486 19,900 -1,591 Descending Cleveland Center
Thu 10:01:25 PM 40.9186 -76.2358 108° East 409 471 17,900 -1,523 Descending New York Center
Thu 10:02:25 PM 40.8850 -76.1014 108° East 404 465 16,600 -1,200 Descending New York Center
Thu 10:03:25 PM 40.8586 -75.9950 108° East 389 448 15,500 -1,350 Descending New York Center
Thu 10:04:25 PM 40.8217 -75.8386 107° East 377 434 13,900 -1,250 Descending New York Center
Thu 10:05:25 PM 40.7894 -75.7100 108° East 371 427 13,000 -650 Descending New York Center
Thu 10:06:25 PM 40.7608 -75.5956 108° East 371 427 12,600 -450 Descending New York Center
Thu 10:07:25 PM 40.7306 -75.4703 108° East 371 427 12,100 -545 Descending New York Center
Thu 10:08:26 PM 40.7028 -75.3314 105° East 366 421 11,500 -550 Descending New York Center
Thu 10:09:25 PM 40.6800 -75.2178 105° East 366 421 11,000 -504 Descending New York Center
Thu 10:10:25 PM 40.6361 -75.1083 118° Southeast 354 407 10,500 -500 Descending New York Center
Thu 10:11:25 PM 40.5669 -75.0028 131° Southeast 347 399 10,000 -250 Descending New York Center
Thu 10:12:25 PM 40.5314 -74.8886 112° Southeast 342 394 10,000 50 Level New York Center
Thu 10:13:25 PM 40.4975 -74.7831 113° Southeast 342 394 10,100 50 Climbing New York Center
Thu 10:14:25 PM 40.4642 -74.6636 110° East 342 394 10,100  Level New York Center
Thu 10:15:25 PM 40.4344 -74.5475 109° East 337 388 10,100  Level New York Center
Thu 10:16:25 PM 40.4636 -74.4153 74° East 325 374 10,100 -600 Level New York Center
Thu 10:17:25 PM 40.4872 -74.3239 71° East 306 352 8,900 -1,500 Descending New York Center
Thu 10:18:25 PM 40.5156 -74.2161 71° East 285 328 7,100 -1,350 Descending New York Center
Thu 10:19:25 PM 40.5431 -74.1328 67° East 285 328 6,200 -1,100 Descending New York Center
Thu 10:20:25 PM 40.6031 -74.0675 40° Northeast 269 310 4,900 -1,050 Descending New York Center
Thu 10:21:25 PM 40.6556 -74.0536 11° North 223 257 4,100 -400 Descending New York Center
Thu 10:22:25 PM 40.7208 -74.0267 17° North 213 245 4,100  Level New York Center
Thu 10:23:25 PM 40.7694 -74.0097 15° North 206 237 4,100  Level New York Center
Thu 10:24:25 PM 40.8203 -73.9794 24° Northeast 186 214 4,100  Level New York Center
Thu 10:25:26 PM 40.8667 -73.9500 26° Northeast 184 212 4,100  Level New York TRACON
Thu 10:26:26 PM 40.9167 -73.9167 27° Northeast 183 211 4,100  Level New York TRACON
Thu 10:27:26 PM 40.9500 -73.8833 37° Northeast 183 211 4,100  Level New York TRACON
Thu 10:28:32 PM 40.9833 -73.8333 49° Northeast 196 226 4,100 -143 Level New York TRACON
Thu 10:29:32 PM 40.9500 -73.7833 131° Southeast 175 201 3,800 -900 Descending New York TRACON
Thu 10:30:32 PM 40.9000 -73.8000 194° South 181 208 2,300 -1,000 Descending New York TRACON
Thu 10:31:26 PM 40.8667 -73.8000 180° South 189 217 1,900 -650 Descending New York TRACON
Thu 10:32:32 PM 40.8167 -73.8333 207° Southwest 146 168 1,000 -810 Descending New York TRACON
Thu 10:33:32 PM 40.7833 -73.8667 217° Southwest 126 145 200 -800 Descending New York TRACON

Login

Don't have an account? Register now (free) for customized features, flight alerts, and more!